Hovedside
METAR-TAF:

METAR-TAF

Lufthavner :

Gällivare lufthavn

Gällivare, Sverige

breddegrad: 67-09N, lengdegrad: 020-39E, høyde over havet: 359 m

Gjeldene værobservasjon

Denne rapporten ble laget for 36 minutter siden, klokken 10:20 UTC
Vind 12 kt fra Sørvest, skiftende mellom Sør og Vest
Temperatur 12°C
Luftfuktighet 47%
Trykk 991 hPa
Sikt 10 km eller mer

METAR: ESNG 211020Z AUTO 23012KT 190V280 9999 BKN051/// 12/01 Q0991

Tid: 12:56 (10:56 UTC)

Varsel

Denne rapporten ble laget for 2 timer og 26 minutter siden, klokken 08:30 UTC
Varsel gyldig fra 21. klokken 09 UTC til 21. klokken 11 UTC
Vind 13 kt fra Sørvest
Sikt 10 km eller mer
ingen skyer under 1500 m og ingen bygeskyer
Sannsynlighet 40%
fra 21. klokken 09 UTC til 21. klokken 11 UTC
Vind 15 kt fra Sør-sørvest med vindkast opp mot 25 kt

TAF: ESNG 210830Z 2109/2111 22013KT CAVOK PROB40 2109/2111 21015G25KT

Værobservasjoner og værvarsel for over 4000 flyplasser (METAR- og TAF-rapporter).

Tilgjengelige stasjoner er representert av de røde og gule prikkene på kartet.

Hold musepekeren over prikken for å se navnet på stasjonen.

Klikk så for å se værobservasjoner og -varsler.

For å forandre kartet kan du klikke på den grønne knappen med svart kryss for å zoome inn, på den grønne knappen med strek for å zoome ut, eller på de grønne pilene for å se tilstøtende kart.


METAR-TAF: